Topock, AZ (86436)

8:49 AM MST on February 13, 2016 (GMT -0700)
Az Route 66, Mile 6 | | Change Station
CLOSE
Current Station
Personal Weather Station
Location: Mohave Valley, AZ
Elevation: 679 ft
Nearby Weather Stations

Elev 679 ft 34.79 °N, 114.48 °W | Updated 8 seconds ago

Clear
Clear
53.1 °F
Feels Like 53.1 °F
N
0.0
Wind Variable Wind from ENE
Gusts 0.0 mph

Today
High -- | Low -- °F
--% Chance of Precip.
Yesterday
High -- | Low -- °F
Precip. -- in
Pressure 30.08 in
Visibility 10.0 miles
Clouds Clear
Dew Point 29 °F
Humidity 39%
Rainfall 0.00 in
Snow Depth Not available.
7:26 AM 6:18 PM
Waxing Crescent, 31% visible
METAR KEED 131456Z AUTO 00000KT 10SM CLR 10/M03 A3012 RMK AO2 SLP185 T01001033 53009
Pressure 30.08 in
Visibility 10.0 miles
Clouds Clear
Dew Point 29 °F
Humidity 39%
Rainfall 0.00 in
Snow Depth Not available.
7:26 AM 6:18 PM
Waxing Crescent, 31% visible
METAR KEED 131456Z AUTO 00000KT 10SM CLR 10/M03 A3012 RMK AO2 SLP185 T01001033 53009

10-Day Weather Forecast

Almanac

Astronomy

Feb. 13, 2016 Rise Set
Actual Time
Civil Twilight
Nautical Twilight
Astronomical Twilight
Moon
Length of Visible Light
Length of Day
Tomorrow will be .
, % of the Moon is Illuminated

Today's Extremes

State Highs State Lows

Community

WunderPhotos

Upload Photos

1,892,587 photos uploaded!

WunderBlog® & News

Nearby

Air Quality

  Air Quality AQ Index Pollutant
Not available.

Snow Depth

Station Depth Elevation

Earthquake Activity

City Distance Mag. Time & Date
Minimum magnitude displayed is 2.5.

Coastal Water Temperatures

Place Temperature

Stations

Nearby Weather Stations

Station Location Temp. Windchill Dew Point Humidity Wind Precip. Elev Updated Type
                   

Watches & Warnings

There are currently no watches in effect.